Bei Facebook empfehlenBei Twitter postenGoogle plusPinterest

Das Wetter im Erzgebirge am 04.07.2016

Wetter und Klima am 04.07.2016 Holzhau im Erzgebirge (630m ü.NN)
Letzte gemessene Temperatur und Uhrzeit der Messung23:45:00 Uhr8.80 °C
Temperatur (Maximum / Höchstwert) und Uhrzeit der Messung16:45:00 Uhr20.80 °C
Temperatur (Minimum / Tiefstwert) und Uhrzeit der Messung04:45:002.70 °C
Errechneter Absolutwert der Temperaturschwankungen zwischen Tmin und Tmax des Tages18.10 K
Errechnete Tagesmitteltemperatur12.96146 °C
Gesamt - Niederschlag des Tages (in flüssiger Form)0.00 Liter / m²
Luftdruck (Maximum / Höchstwert) und Zeitpunkt der Messung09:45:00 Uhr1019.20 hPa
Luftdruck (Minimum / Tiefstwert) und Zeitpunkt der Messung22:00:00 Uhr1016.80 hPa
Errechneter Absolutwert der Luftdruckschwankungen des Tages2.40 hPa
Höchste gemessene Windgeschwindigkeit und Uhrzeit der Messung23:45:00 Uhr0.00 km/h
Errechnete Windhäufigkeit in Relation zu den Messwerten des Tages0.00000 %
Niedrigste Windkühle (Windchill) und Zeitpunkt der Messung04:45:00 Uhr2.70 °C
Taupunkt (Maximum / Höchstwert) und Uhrzeit der Messung10:15:00 Uhr13.70 °C
Taupunkt (Minimum / Tiefstwert) und Uhrzeit der Messung04:45:001.70 °C
Anzahl der automatisch eingelesenen Messwerte 96

Detaillierte Wetter- und Klima- Messwerte für den 04.07.2016 in Holzhau im Erzgebirge (630m ü.NN)
ZeitTemperaturLuftdruckRel. LuftfeuchteWindWindrichtungWindchillTaupunktNiederschlag l/m²
23:45:008.80 °C1016.90 hPa84.00 %6.20 °C 
23:30:009.20 °C1017.00 hPa84.00 %6.60 °C 
23:15:009.40 °C1016.90 hPa83.00 %6.70 °C 
23:00:009.40 °C1017.00 hPa83.00 %6.70 °C 
22:45:009.70 °C1017.00 hPa81.00 %6.60 °C 
22:30:0010.30 °C1017.10 hPa81.00 %7.20 °C 
22:15:0010.60 °C1016.90 hPa80.00 %7.30 °C 
22:00:0011.10 °C1016.80 hPa78.00 %7.40 °C 
21:45:0011.50 °C1017.00 hPa76.00 %7.40 °C 
21:30:0012.10 °C1017.00 hPa74.00 %7.60 °C 
21:15:0012.70 °C1016.90 hPa72.00 %7.80 °C 
21:00:0013.50 °C1017.00 hPa70.00 %8.10 °C 
20:45:0014.60 °C1016.90 hPa68.00 %8.80 °C 
20:30:0015.40 °C1016.80 hPa65.00 %8.90 °C 
20:15:0016.60 °C1016.90 hPa61.00 %9.10 °C 
20:00:0018.10 °C1017.00 hPa58.00 %9.70 °C 
19:45:0019.40 °C1017.00 hPa54.00 %9.90 °C 
19:30:0019.90 °C1017.00 hPa51.00 %9.50 °C 
19:15:0020.00 °C1017.00 hPa51.00 %9.60 °C 
19:00:0020.10 °C1017.00 hPa49.00 %9.10 °C 
18:45:0019.90 °C1017.00 hPa51.00 %9.50 °C 
18:30:0020.20 °C1017.20 hPa50.00 %9.50 °C 
18:15:0020.30 °C1017.50 hPa50.00 %9.50 °C 
18:00:0020.50 °C1017.50 hPa50.00 %9.70 °C 
17:45:0020.30 °C1017.60 hPa54.00 %10.70 °C 
17:30:0020.40 °C1017.70 hPa50.00 %9.60 °C 
17:15:0020.10 °C1017.90 hPa51.00 %9.70 °C 
17:00:0020.50 °C1018.00 hPa51.00 %10.00 °C 
16:45:0020.80 °C1018.00 hPa51.00 %10.30 °C 
16:30:0019.90 °C1018.30 hPa52.00 %9.80 °C 
16:15:0020.30 °C1018.10 hPa51.00 %9.80 °C 
16:00:0020.20 °C1018.40 hPa51.00 %9.70 °C 
15:45:0020.20 °C1018.30 hPa53.00 %10.30 °C 
15:30:0019.90 °C1018.40 hPa53.00 %10.00 °C 
15:15:0020.10 °C1018.30 hPa51.00 %9.70 °C 
15:00:0020.50 °C1018.50 hPa53.00 %10.60 °C 
14:45:0020.30 °C1018.60 hPa52.00 %10.10 °C 
14:30:0020.10 °C1018.50 hPa53.00 %10.20 °C 
14:15:0019.90 °C1018.50 hPa53.00 %10.00 °C 
14:00:0020.60 °C1018.70 hPa52.00 %10.40 °C 
13:45:0020.20 °C1018.60 hPa54.00 %10.60 °C 
13:30:0019.80 °C1018.70 hPa51.00 %9.40 °C 
13:15:0020.50 °C1018.80 hPa53.00 %10.60 °C 
13:00:0020.30 °C1018.80 hPa54.00 %10.70 °C 
12:45:0020.20 °C1018.60 hPa59.00 %11.90 °C 
12:30:0019.30 °C1018.60 hPa60.00 %11.30 °C 
12:15:0018.50 °C1018.80 hPa60.00 %10.60 °C 
12:00:0019.00 °C1018.80 hPa62.00 %11.60 °C 
11:45:0019.20 °C1019.00 hPa61.00 %11.50 °C 
11:30:0020.20 °C1018.90 hPa64.00 %13.20 °C 
11:15:0019.00 °C1019.10 hPa67.00 %12.70 °C 
11:00:0018.10 °C1018.90 hPa71.00 %12.80 °C 
10:45:0016.80 °C1018.90 hPa72.00 %11.70 °C 
10:30:0017.60 °C1018.90 hPa73.00 %12.70 °C 
10:15:0017.80 °C1019.00 hPa77.00 %13.70 °C 
10:00:0016.70 °C1019.00 hPa81.00 %13.40 °C 
09:45:0015.90 °C1019.20 hPa84.00 %13.20 °C 
09:30:0015.50 °C1019.00 hPa87.00 %13.30 °C 
09:15:0015.20 °C1019.00 hPa89.00 %13.40 °C 
09:00:0014.90 °C1018.90 hPa90.00 %13.30 °C 
08:45:0014.90 °C1018.80 hPa91.00 %13.40 °C 
08:30:0014.90 °C1019.10 hPa92.00 %13.60 °C 
08:15:0014.60 °C1018.90 hPa93.00 %13.50 °C 
08:00:0013.60 °C1018.80 hPa94.00 %12.70 °C 
07:45:0012.10 °C1018.70 hPa94.00 %11.20 °C 
07:30:0010.40 °C1018.80 hPa95.00 %9.60 °C 
07:15:007.50 °C1018.80 hPa95.00 %6.80 °C 
07:00:004.90 °C1018.60 hPa94.00 %4.00 °C 
06:45:004.40 °C1018.60 hPa94.00 %3.50 °C 
06:30:003.90 °C1018.60 hPa94.00 %3.00 °C 
06:15:003.60 °C1018.70 hPa93.00 %2.60 °C 
06:00:003.40 °C1018.70 hPa93.00 %2.40 °C 
05:45:003.30 °C1018.60 hPa93.00 %2.30 °C 
05:30:002.90 °C1018.70 hPa93.00 %1.90 °C 
05:15:002.80 °C1018.60 hPa93.00 %1.80 °C 
05:00:002.80 °C1018.60 hPa93.00 %1.80 °C 
04:45:002.70 °C1018.60 hPa93.00 %1.70 °C 
04:30:002.80 °C1018.60 hPa93.00 %1.80 °C 
04:15:002.90 °C1018.60 hPa93.00 %1.90 °C 
04:00:002.90 °C1018.60 hPa93.00 %1.90 °C 
03:45:003.10 °C1018.60 hPa93.00 %2.10 °C 
03:30:003.20 °C1018.60 hPa92.00 %2.00 °C 
03:15:003.40 °C1018.60 hPa92.00 %2.20 °C 
03:00:003.50 °C1018.70 hPa92.00 %2.30 °C 
02:45:003.80 °C1018.70 hPa92.00 %2.60 °C 
02:30:003.90 °C1018.70 hPa92.00 %2.70 °C 
02:15:004.10 °C1018.70 hPa92.00 %2.90 °C 
02:00:004.40 °C1018.70 hPa92.00 %3.20 °C 
01:45:004.40 °C1018.70 hPa92.00 %3.20 °C 
01:30:004.70 °C1018.70 hPa92.00 %3.50 °C 
01:15:005.10 °C1018.80 hPa92.00 %3.90 °C 
01:00:005.20 °C1018.80 hPa92.00 %4.00 °C 
00:45:005.30 °C1018.70 hPa91.00 %4.00 °C 
00:30:005.40 °C1018.80 hPa91.00 %4.10 °C 
00:15:005.60 °C1018.90 hPa91.00 %4.20 °C 
00:00:005.80 °C1018.70 hPa91.00 %4.40 °C 

Permanenter Link zu dieser Seite: Wetter im Erzgebirge am 04.07.2016
Performance-Info: Die Erstellung der Seite / Statistik(en) / Tabelle(n) erforderte 5 Datenbankserver-Abfrage(n) und dauerte 122 Millisekunden. (Dieser Messwert ist von der Gesamt-Auslastung des Servers abhängig.)
Erzgebirge - Wetter | Erzgebirge - Wetter (Mobilgeräte) | Komplette Klimadatenbank